createdAt,value
2023-04-12T00:01:23.836Z,5.60
2023-04-12T00:03:51.680Z,5.70
2023-04-12T00:06:21.033Z,5.60
2023-04-12T00:08:48.614Z,5.60
2023-04-12T00:11:16.203Z,5.60
2023-04-12T00:13:44.020Z,5.60
2023-04-12T00:16:15.318Z,5.60
2023-04-12T00:18:45.919Z,5.60
2023-04-12T00:21:13.752Z,5.50
2023-04-12T00:23:41.312Z,5.50
2023-04-12T00:26:09.114Z,5.50
2023-04-12T00:28:37.398Z,5.50
2023-04-12T00:31:05.269Z,5.60
2023-04-12T00:33:35.544Z,5.50
2023-04-12T00:36:03.436Z,5.50
2023-04-12T00:38:31.223Z,5.50
2023-04-12T00:40:58.759Z,5.60
2023-04-12T00:43:27.725Z,5.50
2023-04-12T00:45:56.992Z,5.50
2023-04-12T00:48:29.041Z,5.50
2023-04-12T00:50:57.868Z,5.40
2023-04-12T00:53:25.710Z,5.40
2023-04-12T00:55:54.523Z,5.30
2023-04-12T00:58:26.948Z,5.40
2023-04-12T01:00:55.044Z,5.30
2023-04-12T01:03:28.079Z,5.30
2023-04-12T01:06:04.950Z,5.30
2023-04-12T01:08:55.854Z,5.40
2023-04-12T01:11:42.927Z,5.40
2023-04-12T01:14:17.827Z,5.40
2023-04-12T01:16:51.329Z,5.30
2023-04-12T01:19:34.208Z,5.30
2023-04-12T01:22:22.374Z,5.40
2023-04-12T01:25:24.501Z,5.30
2023-04-12T01:27:59.759Z,5.30
2023-04-12T01:30:29.529Z,5.30
2023-04-12T01:33:00.976Z,5.20
2023-04-12T01:35:32.436Z,5.10
2023-04-12T01:38:03.632Z,5.20
2023-04-12T01:40:33.432Z,5.10
2023-04-12T01:43:08.682Z,5.10
2023-04-12T01:45:36.876Z,5.00
2023-04-12T01:48:07.555Z,5.00
2023-04-12T01:51:01.513Z,5.00
2023-04-12T01:53:49.428Z,5.00
2023-04-12T01:56:19.155Z,4.90
2023-04-12T01:58:48.742Z,5.00
2023-04-12T02:01:19.418Z,5.00
2023-04-12T02:03:50.158Z,5.10
2023-04-12T02:06:23.093Z,5.10
2023-04-12T02:09:02.316Z,5.10
2023-04-12T02:11:30.178Z,5.20
2023-04-12T02:13:58.036Z,5.10
2023-04-12T02:16:29.598Z,5.20
2023-04-12T02:18:58.922Z,5.30
2023-04-12T02:21:27.934Z,5.20
2023-04-12T02:23:55.950Z,5.30
2023-04-12T02:26:23.864Z,5.40
2023-04-12T02:28:52.684Z,5.30
2023-04-12T02:31:20.497Z,5.40
2023-04-12T02:33:50.430Z,5.30
2023-04-12T02:36:18.974Z,5.30
2023-04-12T02:38:46.563Z,5.50
2023-04-12T02:41:22.541Z,5.50
2023-04-12T02:43:51.161Z,5.30
2023-04-12T02:46:28.916Z,5.20
2023-04-12T02:48:59.132Z,5.30
2023-04-12T02:51:38.444Z,5.30
2023-04-12T02:54:07.598Z,5.30
2023-04-12T02:56:56.238Z,5.30
2023-04-12T02:59:43.760Z,5.30
2023-04-12T03:02:23.471Z,5.40
2023-04-12T03:04:55.033Z,5.20
2023-04-12T03:07:31.163Z,5.20
2023-04-12T03:09:59.480Z,5.20
2023-04-12T03:12:45.792Z,5.20
2023-04-12T03:15:23.503Z,5.30
2023-04-12T03:17:53.168Z,5.20
2023-04-12T03:20:25.275Z,5.00
2023-04-12T03:23:01.549Z,5.20
2023-04-12T03:25:30.793Z,5.30
2023-04-12T03:28:09.582Z,5.20
2023-04-12T03:30:51.924Z,5.10
2023-04-12T03:33:22.376Z,5.00
2023-04-12T03:35:52.641Z,5.00
2023-04-12T03:38:20.422Z,5.00
2023-04-12T03:40:48.174Z,5.10
2023-04-12T03:43:17.703Z,5.00
2023-04-12T03:45:45.289Z,5.00
2023-04-12T03:48:14.272Z,4.90
2023-04-12T03:50:46.440Z,5.20
2023-04-12T03:53:23.873Z,5.10
2023-04-12T03:55:51.899Z,5.00
2023-04-12T03:58:20.811Z,5.10
2023-04-12T04:00:49.287Z,5.10
2023-04-12T04:03:17.150Z,5.00
2023-04-12T04:05:51.255Z,5.10
2023-04-12T04:08:21.791Z,5.10
2023-04-12T04:10:53.576Z,5.30
2023-04-12T04:13:25.585Z,5.10
2023-04-12T04:16:06.188Z,5.10
2023-04-12T04:18:36.066Z,5.20
2023-04-12T04:21:07.636Z,5.30
2023-04-12T04:23:38.584Z,5.20
2023-04-12T04:26:10.720Z,5.40
2023-04-12T04:28:46.390Z,5.50
2023-04-12T04:31:18.022Z,5.30
2023-04-12T04:33:49.820Z,5.50
2023-04-12T04:36:19.087Z,5.50
2023-04-12T04:38:52.634Z,5.50
2023-04-12T04:41:40.431Z,5.60
2023-04-12T04:44:21.947Z,5.70
2023-04-12T04:47:19.137Z,5.70
2023-04-12T04:49:48.204Z,5.90
2023-04-12T04:52:25.124Z,5.80
2023-04-12T04:54:57.925Z,6.00
2023-04-12T04:57:29.969Z,6.10
2023-04-12T04:59:57.658Z,6.10
2023-04-12T05:02:26.441Z,6.20
2023-04-12T05:04:56.535Z,6.40
2023-04-12T05:07:27.331Z,6.50
2023-04-12T05:09:55.044Z,6.70
2023-04-12T05:12:22.946Z,6.80
2023-04-12T05:15:05.024Z,6.90
2023-04-12T05:17:57.693Z,7.10
2023-04-12T05:20:25.302Z,7.30
2023-04-12T05:22:52.880Z,7.40
2023-04-12T05:25:21.046Z,7.50
2023-04-12T05:27:56.172Z,7.50
2023-04-12T05:30:23.986Z,7.80
2023-04-12T05:32:52.827Z,7.60
2023-04-12T05:35:21.649Z,7.70
2023-04-12T05:37:52.426Z,7.80
2023-04-12T05:40:20.016Z,7.90
2023-04-12T05:42:51.598Z,8.00
2023-04-12T05:45:19.574Z,8.20
2023-04-12T05:47:47.326Z,8.30
2023-04-12T05:50:15.145Z,8.30
2023-04-12T05:52:43.846Z,8.40
2023-04-12T05:55:11.457Z,8.50
2023-04-12T05:57:42.277Z,8.30
2023-04-12T06:00:14.200Z,8.20
2023-04-12T06:02:45.894Z,8.40
2023-04-12T06:05:14.786Z,8.30
2023-04-12T06:07:46.974Z,8.60
2023-04-12T06:10:16.371Z,8.50
2023-04-12T06:12:46.255Z,8.30
2023-04-12T06:15:14.622Z,8.50
2023-04-12T06:17:42.745Z,8.30
2023-04-12T06:20:10.927Z,9.00
2023-04-12T06:22:39.720Z,8.90
2023-04-12T06:25:08.456Z,8.90
2023-04-12T06:27:36.396Z,8.80
2023-04-12T06:30:04.672Z,8.70
2023-04-12T06:32:35.789Z,9.00
2023-04-12T06:35:03.843Z,8.70
2023-04-12T06:37:31.530Z,8.90
2023-04-12T06:39:59.204Z,9.20
2023-04-12T06:42:26.962Z,9.00
2023-04-12T06:44:56.317Z,9.00
2023-04-12T06:47:25.663Z,8.90
2023-04-12T06:49:56.321Z,9.00
2023-04-12T06:52:28.258Z,9.20
2023-04-12T06:54:57.078Z,9.40
2023-04-12T06:57:25.210Z,9.40
2023-04-12T06:59:52.859Z,9.40
2023-04-12T07:02:20.677Z,9.70
2023-04-12T07:04:53.963Z,9.70
2023-04-12T07:07:21.795Z,9.20
2023-04-12T07:09:49.422Z,9.50
2023-04-12T07:12:17.330Z,9.70
2023-04-12T07:14:44.970Z,9.80
2023-04-12T07:17:12.863Z,9.80
2023-04-12T07:19:42.156Z,9.70
2023-04-12T07:22:10.840Z,10.00
2023-04-12T07:24:39.596Z,9.60
2023-04-12T07:27:07.251Z,9.80
2023-04-12T07:29:34.898Z,9.70
2023-04-12T07:32:03.018Z,10.20
2023-04-12T07:34:31.198Z,10.20
2023-04-12T07:37:01.022Z,9.90
2023-04-12T07:39:29.988Z,10.00
2023-04-12T07:41:57.829Z,9.70
2023-04-12T07:44:25.497Z,10.40
2023-04-12T07:46:53.289Z,10.50
2023-04-12T07:49:21.185Z,10.20
2023-04-12T07:51:48.799Z,10.20
2023-04-12T07:54:16.725Z,9.90
2023-04-12T07:56:58.713Z,10.40
2023-04-12T07:59:26.394Z,10.40
2023-04-12T08:01:54.088Z,10.10
2023-04-12T08:04:21.983Z,10.80
2023-04-12T08:06:49.706Z,11.10
2023-04-12T08:09:17.295Z,10.40
2023-04-12T08:11:44.977Z,10.60
2023-04-12T08:14:12.641Z,10.50
2023-04-12T08:16:40.373Z,11.20
2023-04-12T08:19:08.174Z,10.70
2023-04-12T08:21:35.921Z,10.30
2023-04-12T08:24:03.842Z,10.80
2023-04-12T08:26:31.915Z,11.00
2023-04-12T08:28:59.616Z,11.30
2023-04-12T08:31:27.354Z,11.20
2023-04-12T08:33:54.950Z,11.30
2023-04-12T08:36:22.475Z,11.10
2023-04-12T08:38:52.573Z,10.80
2023-04-12T08:41:20.384Z,11.20
2023-04-12T08:43:48.847Z,11.10
2023-04-12T08:46:17.760Z,11.50
2023-04-12T08:48:47.549Z,11.20
2023-04-12T08:51:17.518Z,11.70
2023-04-12T08:53:45.517Z,11.60
2023-04-12T08:56:14.713Z,11.80
2023-04-12T08:58:46.736Z,11.70
2023-04-12T09:01:16.134Z,11.30
2023-04-12T09:03:45.390Z,11.50
2023-04-12T09:06:13.560Z,11.70
2023-04-12T09:08:55.051Z,11.10
2023-04-12T09:11:27.421Z,11.50
2023-04-12T09:13:57.098Z,11.60
2023-04-12T09:16:45.006Z,11.80
2023-04-12T09:19:12.696Z,11.90
2023-04-12T09:21:54.939Z,12.40
2023-04-12T09:24:25.550Z,11.60
2023-04-12T09:27:03.146Z,11.50
2023-04-12T09:29:32.098Z,11.50
2023-04-12T09:32:05.797Z,11.40
2023-04-12T09:34:35.907Z,11.20
2023-04-12T09:37:14.643Z,11.40
2023-04-12T09:39:43.040Z,11.60
2023-04-12T09:42:29.287Z,11.70
2023-04-12T09:45:01.201Z,12.30
2023-04-12T09:47:39.882Z,11.90
2023-04-12T09:50:09.755Z,11.90
2023-04-12T09:52:39.133Z,12.60
2023-04-12T09:55:11.317Z,12.00
2023-04-12T09:57:42.177Z,12.40
2023-04-12T10:00:14.177Z,12.40
2023-04-12T10:02:45.094Z,13.10
2023-04-12T10:05:18.190Z,12.60
2023-04-12T10:07:47.230Z,12.60
2023-04-12T10:10:16.644Z,12.50
2023-04-12T10:12:47.292Z,12.90
2023-04-12T10:15:20.957Z,13.10
2023-04-12T10:17:54.294Z,12.80
2023-04-12T10:20:24.775Z,12.30
2023-04-12T10:22:55.086Z,12.30
2023-04-12T10:25:27.066Z,12.10
2023-04-12T10:27:54.792Z,12.50
2023-04-12T10:30:27.263Z,12.70
2023-04-12T10:33:08.400Z,12.20
2023-04-12T10:36:00.967Z,12.00
2023-04-12T10:38:35.890Z,12.20
2023-04-12T10:41:11.381Z,11.70
2023-04-12T10:43:39.779Z,11.60
2023-04-12T10:46:07.538Z,11.50
2023-04-12T10:48:51.429Z,12.30
2023-04-12T10:51:25.643Z,12.10
2023-04-12T10:54:17.768Z,12.50
2023-04-12T10:56:49.235Z,13.20
2023-04-12T10:59:31.315Z,12.90
2023-04-12T11:02:09.180Z,12.30
2023-04-12T11:04:37.354Z,12.00
2023-04-12T11:07:12.164Z,11.90
2023-04-12T11:09:43.523Z,12.00
2023-04-12T11:12:21.725Z,12.50
2023-04-12T11:14:51.281Z,13.00
2023-04-12T11:17:24.602Z,12.60
2023-04-12T11:19:58.471Z,12.50
2023-04-12T11:22:32.301Z,13.50
2023-04-12T11:25:02.338Z,13.50
2023-04-12T11:27:32.245Z,12.90
2023-04-12T11:30:01.251Z,13.20
2023-04-12T11:32:30.726Z,13.20
2023-04-12T11:34:58.828Z,12.90
2023-04-12T11:37:31.994Z,12.20
2023-04-12T11:40:00.508Z,12.20
2023-04-12T11:42:29.458Z,12.60
2023-04-12T11:45:01.936Z,12.80
2023-04-12T11:47:32.622Z,12.90
2023-04-12T11:50:00.356Z,12.90
2023-04-12T11:52:32.460Z,12.80
2023-04-12T11:55:06.789Z,12.40
2023-04-12T11:57:35.702Z,12.60
2023-04-12T12:00:06.725Z,12.80
2023-04-12T12:02:48.845Z,13.20
2023-04-12T12:05:21.329Z,13.00
2023-04-12T12:07:49.801Z,13.20
2023-04-12T12:10:32.562Z,12.80
2023-04-12T12:13:15.453Z,12.50
2023-04-12T12:15:46.367Z,12.50
2023-04-12T12:18:14.130Z,12.60
2023-04-12T12:20:43.199Z,12.60
2023-04-12T12:23:11.037Z,12.70
2023-04-12T12:25:38.702Z,13.20
2023-04-12T12:28:12.462Z,13.20
2023-04-12T12:30:40.342Z,13.50
2023-04-12T12:33:08.188Z,13.80
2023-04-12T12:35:36.612Z,13.50
2023-04-12T12:38:08.641Z,13.10
2023-04-12T12:40:36.313Z,13.00
2023-04-12T12:43:04.100Z,12.90
2023-04-12T12:45:33.324Z,12.70
2023-04-12T12:48:03.842Z,13.00
2023-04-12T12:50:33.740Z,12.80
2023-04-12T12:53:02.900Z,13.10
2023-04-12T12:55:31.823Z,12.40
2023-04-12T13:00:30.524Z,13.00
2023-04-12T13:02:58.723Z,13.30
2023-04-12T13:05:26.608Z,13.20
2023-04-12T13:07:54.223Z,12.90
2023-04-12T13:10:21.773Z,12.50
2023-04-12T13:12:49.584Z,12.30
2023-04-12T13:15:23.099Z,12.30
2023-04-12T13:17:55.302Z,12.70
2023-04-12T13:20:23.458Z,12.90
2023-04-12T13:22:52.280Z,13.20
2023-04-12T13:25:20.979Z,13.20
2023-04-12T13:27:49.771Z,13.10
2023-04-12T13:30:19.132Z,13.20
2023-04-12T13:32:46.982Z,13.10
2023-04-12T13:35:14.770Z,13.40
2023-04-12T13:37:42.457Z,13.60
2023-04-12T13:40:10.468Z,13.70
2023-04-12T13:42:38.039Z,13.50
2023-04-12T13:45:07.117Z,13.10
2023-04-12T13:47:35.460Z,13.40
2023-04-12T13:50:03.192Z,13.40
2023-04-12T13:52:31.010Z,13.00
2023-04-12T13:54:59.704Z,13.20
2023-04-12T13:57:27.437Z,13.60
2023-04-12T13:59:55.104Z,13.40
2023-04-12T14:02:22.864Z,13.20
2023-04-12T14:04:55.302Z,13.70
2023-04-12T14:07:24.336Z,13.80
2023-04-12T14:09:51.991Z,13.50
2023-04-12T14:12:19.568Z,13.50
2023-04-12T14:14:47.392Z,13.80
2023-04-12T14:17:14.984Z,13.80
2023-04-12T14:19:42.514Z,13.50
2023-04-12T14:22:10.085Z,13.60
2023-04-12T14:24:37.876Z,13.80
2023-04-12T14:27:05.674Z,13.90
2023-04-12T14:29:33.550Z,13.50
2023-04-12T14:32:01.152Z,13.50
2023-04-12T14:34:28.844Z,13.60
2023-04-12T14:36:56.460Z,13.80
2023-04-12T14:39:27.890Z,13.70
2023-04-12T14:41:57.013Z,13.70
2023-04-12T14:44:26.404Z,13.50
2023-04-12T14:46:54.309Z,13.60
2023-04-12T14:49:21.947Z,13.70
2023-04-12T14:51:49.591Z,13.50
2023-04-12T14:54:17.263Z,13.60
2023-04-12T14:56:51.494Z,13.60
2023-04-12T14:59:20.544Z,13.60
2023-04-12T15:01:48.435Z,13.90
2023-04-12T15:04:16.688Z,13.90
2023-04-12T15:06:45.145Z,13.80
2023-04-12T15:09:15.872Z,13.50
2023-04-12T15:11:47.353Z,13.40
2023-04-12T15:14:19.985Z,13.60
2023-04-12T15:16:49.488Z,13.40
2023-04-12T15:19:21.512Z,13.30
2023-04-12T15:21:51.503Z,13.30
2023-04-12T15:24:19.504Z,13.60
2023-04-12T15:26:52.597Z,13.60
2023-04-12T15:29:21.406Z,13.50
2023-04-12T15:31:49.344Z,13.60
2023-04-12T15:34:17.886Z,13.80
2023-04-12T15:36:46.205Z,13.60
2023-04-12T15:39:15.227Z,13.50
2023-04-12T15:41:43.719Z,13.40
2023-04-12T15:44:13.548Z,13.50
2023-04-12T15:46:42.030Z,13.50
2023-04-12T15:49:11.842Z,13.40
2023-04-12T15:51:39.609Z,13.30
2023-04-12T15:54:07.406Z,13.60
2023-04-12T15:56:35.826Z,13.40
2023-04-12T15:59:04.711Z,13.30
2023-04-12T16:01:32.911Z,13.30
2023-04-12T16:04:01.321Z,13.20
2023-04-12T16:06:31.322Z,13.40
2023-04-12T16:08:59.569Z,13.20
2023-04-12T16:11:27.820Z,13.20
2023-04-12T16:13:55.602Z,13.10
2023-04-12T16:16:23.970Z,12.90
2023-04-12T16:18:53.094Z,12.80
2023-04-12T16:21:23.613Z,12.90
2023-04-12T16:23:51.709Z,12.70
2023-04-12T16:26:24.907Z,12.50
2023-04-12T16:28:53.779Z,12.50
2023-04-12T16:31:21.842Z,12.40
2023-04-12T16:33:52.019Z,12.30
2023-04-12T16:36:27.222Z,12.20
2023-04-12T16:38:55.494Z,12.10
2023-04-12T16:41:24.039Z,12.00
2023-04-12T16:43:53.946Z,12.00
2023-04-12T16:46:21.850Z,12.00
2023-04-12T16:48:50.100Z,11.80
2023-04-12T16:51:19.079Z,11.70
2023-04-12T16:53:47.539Z,11.70
2023-04-12T16:56:16.438Z,11.70
2023-04-12T16:58:45.374Z,11.50
2023-04-12T17:01:17.786Z,11.40
2023-04-12T17:03:48.079Z,10.90
2023-04-12T17:06:16.932Z,10.80
2023-04-12T17:08:46.971Z,10.70
2023-04-12T17:11:17.682Z,10.60
2023-04-12T17:13:47.567Z,10.40
2023-04-12T17:16:17.048Z,10.40
2023-04-12T17:18:46.465Z,10.30
2023-04-12T17:21:18.117Z,10.30
2023-04-12T17:23:50.713Z,10.20
2023-04-12T17:26:25.446Z,10.30
2023-04-12T17:28:55.758Z,10.30
2023-04-12T17:31:27.985Z,10.00
2023-04-12T17:33:56.502Z,9.80
2023-04-12T17:36:25.238Z,9.80
2023-04-12T17:38:57.278Z,9.60
2023-04-12T17:41:29.786Z,9.40
2023-04-12T17:43:58.136Z,9.30
2023-04-12T17:46:30.128Z,9.20
2023-04-12T17:49:00.359Z,9.00
2023-04-12T17:51:30.610Z,8.90
2023-04-12T17:54:02.146Z,8.50
2023-04-12T17:56:30.903Z,8.40
2023-04-12T17:59:00.405Z,8.50
2023-04-12T18:01:29.049Z,8.40
2023-04-12T18:03:58.138Z,8.40
2023-04-12T18:06:26.768Z,8.40
2023-04-12T18:08:56.559Z,8.40
2023-04-12T18:11:25.233Z,8.10
2023-04-12T18:13:54.293Z,8.00
2023-04-12T18:16:23.464Z,8.00
2023-04-12T18:18:53.900Z,8.20
2023-04-12T18:21:25.699Z,8.20
2023-04-12T18:23:55.167Z,8.20
2023-04-12T18:26:23.943Z,8.00
2023-04-12T18:28:52.698Z,7.80
2023-04-12T18:31:23.516Z,7.90
2023-04-12T18:33:58.881Z,7.90
2023-04-12T18:36:27.556Z,7.80
2023-04-12T18:38:56.431Z,7.80
2023-04-12T18:41:24.748Z,7.40
2023-04-12T18:43:53.521Z,7.40
2023-04-12T18:46:21.872Z,7.50
2023-04-12T18:48:54.182Z,7.50
2023-04-12T18:51:25.357Z,7.50
2023-04-12T18:53:54.587Z,7.40
2023-04-12T18:56:26.446Z,7.40
2023-04-12T18:58:56.379Z,7.30
2023-04-12T19:01:28.677Z,7.20
2023-04-12T19:04:02.411Z,7.10
2023-04-12T19:06:31.680Z,7.10
2023-04-12T19:09:00.717Z,7.20
2023-04-12T19:14:11.400Z,7.00
2023-04-12T19:16:40.504Z,6.90
2023-04-12T19:19:08.867Z,6.90
2023-04-12T19:21:37.885Z,7.00
2023-04-12T19:24:09.678Z,6.90
2023-04-12T19:26:47.599Z,6.90
2023-04-12T19:29:17.117Z,6.80
2023-04-12T19:31:48.452Z,6.80
2023-04-12T19:34:20.163Z,6.90
2023-04-12T19:36:48.584Z,7.00
2023-04-12T19:39:19.948Z,7.00
2023-04-12T19:41:50.378Z,6.90
2023-04-12T19:44:19.684Z,6.80
2023-04-12T19:46:48.489Z,6.60
2023-04-12T19:49:20.362Z,6.60
2023-04-12T19:51:51.177Z,6.60
2023-04-12T19:54:24.260Z,6.70
2023-04-12T19:56:53.855Z,6.70
2023-04-12T19:59:26.360Z,6.80
2023-04-12T20:01:56.573Z,6.70
2023-04-12T20:04:27.228Z,6.60
2023-04-12T20:07:00.508Z,6.60
2023-04-12T20:09:31.319Z,6.70
2023-04-12T20:12:03.400Z,6.80
2023-04-12T20:14:33.180Z,6.90
2023-04-12T20:17:04.074Z,7.00
2023-04-12T20:19:32.952Z,6.80
2023-04-12T20:22:04.346Z,6.70
2023-04-12T20:24:34.914Z,6.70
2023-04-12T20:27:04.103Z,6.60
2023-04-12T20:29:35.525Z,6.70
2023-04-12T20:32:08.296Z,6.60
2023-04-12T20:34:37.010Z,6.50
2023-04-12T20:37:06.102Z,6.50
2023-04-12T20:39:34.302Z,6.50
2023-04-12T20:42:02.075Z,6.40
2023-04-12T20:44:30.371Z,6.40
2023-04-12T20:46:58.749Z,6.40
2023-04-12T20:49:28.230Z,6.40
2023-04-12T20:51:59.670Z,6.40
2023-04-12T20:54:33.128Z,6.40
2023-04-12T20:57:03.938Z,6.30
2023-04-12T20:59:33.503Z,6.30
2023-04-12T21:02:01.212Z,6.30
2023-04-12T21:04:29.357Z,6.30
2023-04-12T21:06:57.416Z,6.20
2023-04-12T21:09:25.477Z,6.20
2023-04-12T21:11:53.588Z,6.20
2023-04-12T21:14:21.273Z,6.10
2023-04-12T21:16:49.004Z,6.10
2023-04-12T21:19:18.407Z,6.00
2023-04-12T21:21:46.640Z,6.10
2023-04-12T21:24:14.527Z,6.10
2023-04-12T21:26:42.898Z,6.00
2023-04-12T21:29:11.680Z,6.00
2023-04-12T21:31:41.779Z,6.00
2023-04-12T21:34:10.264Z,5.90
2023-04-12T21:36:38.789Z,5.90
2023-04-12T21:39:06.579Z,6.00
2023-04-12T21:41:34.274Z,6.00
2023-04-12T21:44:01.978Z,6.10
2023-04-12T21:46:29.550Z,6.10
2023-04-12T21:48:57.502Z,6.10
2023-04-12T21:51:26.489Z,6.20
2023-04-12T21:53:54.210Z,6.20
2023-04-12T21:56:22.357Z,6.30
2023-04-12T21:58:50.141Z,6.30
2023-04-12T22:01:17.832Z,6.40
2023-04-12T22:03:45.751Z,6.30
2023-04-12T22:06:13.577Z,6.20
2023-04-12T22:08:44.150Z,6.40
2023-04-12T22:11:12.591Z,6.40
2023-04-12T22:13:41.942Z,6.50
2023-04-12T22:16:14.056Z,6.50
2023-04-12T22:18:45.626Z,6.50
2023-04-12T22:21:13.476Z,6.50
2023-04-12T22:23:41.678Z,6.50
2023-04-12T22:26:11.259Z,6.50
2023-04-12T22:28:39.422Z,6.50
2023-04-12T22:31:16.573Z,6.70
2023-04-12T22:33:47.639Z,6.60
2023-04-12T22:36:16.312Z,6.80
2023-04-12T22:38:44.029Z,6.80
2023-04-12T22:41:15.975Z,6.80
2023-04-12T22:43:43.675Z,6.70
2023-04-12T22:46:18.778Z,6.80
2023-04-12T22:48:48.421Z,6.80
2023-04-12T22:51:16.278Z,6.90
2023-04-12T22:53:43.913Z,6.90
2023-04-12T22:56:11.981Z,7.00
2023-04-12T22:58:40.761Z,7.00
2023-04-12T23:01:11.048Z,7.00
2023-04-12T23:03:41.857Z,7.10
2023-04-12T23:06:12.792Z,7.10
2023-04-12T23:08:40.944Z,7.20
2023-04-12T23:11:08.646Z,7.20
2023-04-12T23:13:36.281Z,7.30
2023-04-12T23:16:05.985Z,7.30
2023-04-12T23:18:35.472Z,7.30
2023-04-12T23:21:03.183Z,7.30
2023-04-12T23:23:30.876Z,7.30
2023-04-12T23:25:59.556Z,7.40
2023-04-12T23:28:28.610Z,7.40
2023-04-12T23:30:57.869Z,7.40
2023-04-12T23:33:25.592Z,7.40
2023-04-12T23:35:53.525Z,7.40
2023-04-12T23:38:27.181Z,7.40
2023-04-12T23:40:54.898Z,7.40
2023-04-12T23:43:24.190Z,7.40
2023-04-12T23:45:52.675Z,7.40
2023-04-12T23:48:20.843Z,7.40
2023-04-12T23:50:48.666Z,7.40
2023-04-12T23:53:17.317Z,7.40
2023-04-12T23:55:48.552Z,7.40
2023-04-12T23:58:17.081Z,7.50
